Time;durP1;ratioP1;P1;durP2;ratioP2;P2;SDS_P1;SDS_P2;PMS_P1;PMS_P2;Temp;Humidity;BMP_temperature;BMP_pressure;BME280_temperature;BME280_humidity;BME280_pressure;Samples;Min_cycle;Max_cycle;Signal;HPM_P1;HPM_P2
2021/12/06 00:01:21;;;;;;;6.78;4.20;;;;;;;11.71;49.20;100855.94;5042871;28;20025;-58
2021/12/06 00:03:56;;;;;;;8.82;5.07;;;;;;;11.69;49.22;100874.03;5044022;28;20028;-58
2021/12/06 00:06:23;;;;;;;9.80;5.10;;;;;;;11.64;49.37;100870.88;5044149;28;20020;-59
2021/12/06 00:08:49;;;;;;;10.52;5.10;;;;;;;11.65;48.97;100872.53;5043562;28;20040;-58
2021/12/06 00:11:15;;;;;;;7.35;4.90;;;;;;;11.64;49.53;100879.75;5045440;28;20025;-59
2021/12/06 00:13:51;;;;;;;8.25;5.07;;;;;;;11.66;49.21;100874.25;5044555;28;20124;-58
2021/12/06 00:16:21;;;;;;;12.23;7.57;;;;;;;11.65;49.48;100880.59;5046572;28;20025;-58
2021/12/06 00:18:51;;;;;;;9.77;5.05;;;;;;;11.66;49.69;100874.25;5043361;28;20025;-58
2021/12/06 00:21:18;;;;;;;11.07;5.18;;;;;;;11.68;49.45;100883.00;5041958;28;20033;-58
2021/12/06 00:23:43;;;;;;;9.30;6.15;;;;;;;11.68;48.95;100877.66;5045015;28;20019;-58
2021/12/06 00:26:09;;;;;;;11.02;5.63;;;;;;;11.67;49.33;100881.28;5028513;28;20104;-58
2021/12/06 00:28:35;;;;;;;11.20;4.60;;;;;;;11.66;49.25;100885.00;5042716;28;20053;-58
2021/12/06 00:31:01;;;;;;;9.48;4.95;;;;;;;11.65;49.12;100877.91;5043139;28;20025;-58
2021/12/06 00:33:27;;;;;;;5.57;4.22;;;;;;;11.65;49.05;100894.88;5043490;28;20367;-58
2021/12/06 00:35:56;;;;;;;8.70;4.88;;;;;;;11.64;49.31;100892.34;5041463;28;20028;-58
2021/12/06 00:38:21;;;;;;;12.23;5.85;;;;;;;11.62;49.17;100897.81;5026788;28;20032;-58
2021/12/06 00:40:49;;;;;;;12.02;5.80;;;;;;;11.61;49.71;100900.66;5042657;28;20029;-59
2021/12/06 00:43:16;;;;;;;10.20;5.53;;;;;;;11.61;49.97;100903.31;5044398;28;20025;-58
2021/12/06 00:45:42;;;;;;;8.13;4.72;;;;;;;11.56;49.40;100892.97;5043141;28;20105;-58
2021/12/06 00:48:08;;;;;;;9.02;4.82;;;;;;;11.57;49.40;100896.50;5041671;28;20444;-58
2021/12/06 00:50:35;;;;;;;6.55;4.70;;;;;;;11.57;49.34;100900.06;5043292;28;20032;-59
2021/12/06 00:53:01;;;;;;;9.68;5.47;;;;;;;11.51;49.40;100899.72;5041889;28;20026;-58
2021/12/06 00:55:27;;;;;;;9.93;6.28;;;;;;;11.51;49.29;100913.13;5042386;28;20417;-58
2021/12/06 00:57:53;;;;;;;7.57;5.20;;;;;;;11.50;49.00;100917.66;5052462;28;20035;-58
2021/12/06 01:00:25;;;;;;;9.20;5.00;;;;;;;11.45;49.25;100927.06;5053713;28;20385;-58
2021/12/06 01:02:50;;;;;;;8.10;5.43;;;;;;;11.49;49.13;100923.16;5053343;28;20557;-58
2021/12/06 01:05:17;;;;;;;10.55;5.85;;;;;;;11.46;48.99;100926.09;5053195;28;20028;-58
2021/12/06 01:07:42;;;;;;;10.23;5.97;;;;;;;11.48;49.44;100929.50;5017048;28;20029;-58
2021/12/06 01:10:08;;;;;;;10.93;6.70;;;;;;;11.48;49.14;100932.19;5033535;28;20040;-58
2021/12/06 01:12:34;;;;;;;10.90;6.70;;;;;;;11.50;49.91;100938.28;5015548;28;20041;-58
2021/12/06 01:15:00;;;;;;;10.10;6.75;;;;;;;11.54;49.78;100942.38;5032123;28;20098;-58
2021/12/06 01:17:26;;;;;;;15.85;7.45;;;;;;;11.55;49.39;100936.91;5032185;28;20389;-58
2021/12/06 01:19:51;;;;;;;10.23;6.70;;;;;;;11.58;49.54;100952.75;5033319;28;20033;-58
2021/12/06 01:24:52;;;;;;;7.65;4.97;;;;;;;11.59;49.69;100956.25;5033135;28;20065;-58
2021/12/06 01:30:15;;;;;;;9.40;5.40;;;;;;;11.57;50.07;100968.94;5032320;28;20072;-58
2021/12/06 01:33:06;;;;;;;12.45;6.82;;;;;;;11.56;49.80;100975.28;5033239;28;20108;-58
2021/12/06 01:41:17;;;;;;;13.27;6.93;;;;;;;11.60;49.80;100982.97;5031731;28;20135;-58
2021/12/06 01:44:09;;;;;;;11.77;6.80;;;;;;;11.64;49.64;100994.28;5032651;28;20474;-58
2021/12/06 01:46:37;;;;;;;15.80;7.82;;;;;;;11.63;49.96;100984.53;5031995;28;20029;-58
2021/12/06 01:49:03;;;;;;;13.57;7.38;;;;;;;11.65;49.56;100996.81;5032893;28;20092;-58
2021/12/06 01:51:29;;;;;;;15.68;8.43;;;;;;;11.66;50.02;100986.94;5032815;28;20034;-58
2021/12/06 01:53:55;;;;;;;15.70;8.02;;;;;;;11.64;49.43;100988.91;5033374;28;20029;-57
2021/12/06 01:56:20;;;;;;;13.35;7.32;;;;;;;11.72;49.96;100991.81;5033194;28;20379;-58
2021/12/06 01:58:46;;;;;;;12.75;6.85;;;;;;;11.74;49.41;100989.00;5033305;28;20532;-58
2021/12/06 02:01:11;;;;;;;11.18;7.10;;;;;;;11.71;50.26;100976.69;5032640;28;20479;-58
2021/12/06 02:03:37;;;;;;;11.52;7.00;;;;;;;11.75;49.99;100991.56;5032798;28;20033;-58
2021/12/06 02:06:04;;;;;;;12.75;7.70;;;;;;;11.78;49.70;100996.63;5031392;28;20056;-58
2021/12/06 02:08:29;;;;;;;23.08;7.35;;;;;;;11.79;49.44;100998.34;5031451;28;20071;-58
2021/12/06 02:11:00;;;;;;;17.98;7.72;;;;;;;11.80;50.37;101001.88;5032834;28;20175;-58
2021/12/06 02:13:30;;;;;;;13.02;7.40;;;;;;;11.81;49.62;101006.28;5032562;28;20061;-58
2021/12/06 02:15:56;;;;;;;13.27;7.43;;;;;;;11.81;49.42;101001.72;5032655;28;20497;-58
2021/12/06 02:21:14;;;;;;;13.00;7.55;;;;;;;11.81;50.12;101017.00;5032863;28;20112;-58
2021/12/06 02:23:40;;;;;;;15.13;8.40;;;;;;;11.80;50.01;101020.66;5032700;28;20449;-58
2021/12/06 02:26:06;;;;;;;16.33;7.80;;;;;;;11.80;49.63;101029.56;5032407;28;20120;-58
2021/12/06 02:28:31;;;;;;;15.93;7.70;;;;;;;11.80;49.66;101032.25;5032496;28;20041;-58
2021/12/06 02:30:57;;;;;;;18.25;8.23;;;;;;;11.82;50.11;101038.34;5032473;28;20053;-58
2021/12/06 02:33:23;;;;;;;13.35;8.05;;;;;;;11.82;49.71;101035.66;5031428;28;20128;-58
2021/12/06 02:35:51;;;;;;;13.15;7.10;;;;;;;11.84;50.74;101033.69;5031021;28;20493;-58
2021/12/06 02:38:16;;;;;;;16.80;8.32;;;;;;;11.86;50.02;101036.25;5031038;28;20037;-58
2021/12/06 02:40:41;;;;;;;17.13;8.77;;;;;;;11.86;49.75;101046.97;5032757;28;20122;-58
2021/12/06 02:43:08;;;;;;;16.80;8.07;;;;;;;11.86;49.46;101045.16;5032512;28;20038;-58
2021/12/06 02:45:34;;;;;;;14.70;8.30;;;;;;;11.87;49.89;101049.53;5032344;28;20038;-58
2021/12/06 02:48:02;;;;;;;15.32;8.77;;;;;;;11.87;49.94;101043.28;5031175;28;20037;-58
2021/12/06 02:50:34;;;;;;;18.88;7.68;;;;;;;11.87;50.42;101049.53;5032732;28;20528;-58
2021/12/06 02:53:00;;;;;;;15.95;8.10;;;;;;;11.87;50.27;101044.16;5032319;28;20469;-58
2021/12/06 02:55:35;;;;;;;20.60;9.80;;;;;;;11.87;49.72;101052.19;5032369;28;20033;-58
2021/12/06 02:58:14;;;;;;;18.08;7.80;;;;;;;11.88;50.26;101045.88;5034629;28;20033;-58
2021/12/06 03:00:45;;;;;;;15.50;8.05;;;;;;;11.88;49.58;101048.56;5036160;28;20059;-58
2021/12/06 03:03:12;;;;;;;14.30;7.60;;;;;;;11.88;49.71;101048.56;5034767;28;20108;-58
2021/12/06 03:05:37;;;;;;;18.20;7.88;;;;;;;11.87;50.32;101054.88;5035965;28;20470;-58
2021/12/06 03:08:05;;;;;;;16.20;9.00;;;;;;;11.86;50.37;101058.56;5034832;28;20040;-58
2021/12/06 03:10:30;;;;;;;17.15;8.50;;;;;;;11.87;50.40;101065.63;5034723;28;20084;-59
2021/12/06 03:12:56;;;;;;;15.68;7.70;;;;;;;11.87;49.94;101071.00;5035263;28;20053;-59
2021/12/06 03:15:21;;;;;;;13.93;8.07;;;;;;;11.87;49.99;101076.38;5034502;28;20072;-58
2021/12/06 03:17:47;;;;;;;16.20;7.35;;;;;;;11.86;50.38;101074.69;5035495;28;20041;-58
2021/12/06 03:20:14;;;;;;;18.90;8.20;;;;;;;11.86;49.58;101068.47;5034582;28;20444;-58
2021/12/06 03:22:41;;;;;;;17.75;8.52;;;;;;;11.86;50.04;101069.31;5034181;28;20033;-58
2021/12/06 03:25:12;;;;;;;22.05;8.93;;;;;;;11.83;49.50;101063.34;5035071;28;20039;-58
2021/12/06 03:27:38;;;;;;;20.75;9.00;;;;;;;11.85;49.67;101072.09;5034157;28;20067;-58
2021/12/06 03:30:06;;;;;;;19.60;8.43;;;;;;;11.82;50.19;101072.38;5035426;28;20037;-58
2021/12/06 03:32:32;;;;;;;17.95;8.80;;;;;;;11.86;49.75;101080.03;5034150;28;20044;-58
2021/12/06 03:34:57;;;;;;;19.02;8.25;;;;;;;11.86;49.78;101074.69;5035157;28;20029;-58
2021/12/06 03:37:23;;;;;;;18.05;8.52;;;;;;;11.86;49.84;101077.38;5035403;28;20033;-58
2021/12/06 03:39:49;;;;;;;17.13;8.25;;;;;;;11.85;50.36;101077.47;5033867;28;20038;-58
2021/12/06 03:42:17;;;;;;;17.55;8.43;;;;;;;11.82;49.62;101067.84;5035263;28;20037;-58
2021/12/06 03:44:43;;;;;;;17.27;9.38;;;;;;;11.86;50.33;101080.03;5035118;28;20033;-59
2021/12/06 03:47:14;;;;;;;19.02;9.15;;;;;;;11.86;49.48;101084.56;5034940;28;20034;-58
2021/12/06 03:49:39;;;;;;;24.83;9.70;;;;;;;11.84;49.93;101076.63;5034923;28;20032;-58
2021/12/06 03:52:05;;;;;;;19.25;8.82;;;;;;;11.85;49.62;101078.34;5034928;28;20025;-58
2021/12/06 03:54:32;;;;;;;16.38;8.52;;;;;;;11.85;49.94;101086.38;5034826;28;20029;-58
2021/12/06 03:56:58;;;;;;;18.20;8.60;;;;;;;11.81;50.31;101086.78;5033821;28;20031;-58
2021/12/06 03:59:24;;;;;;;20.83;9.98;;;;;;;11.84;50.09;101087.34;5035014;28;20104;-58
2021/12/06 04:01:50;;;;;;;19.67;8.95;;;;;;;11.80;49.74;101085.06;5033571;28;20037;-58
2021/12/06 04:04:16;;;;;;;16.90;9.10;;;;;;;11.72;49.61;101075.00;5034516;28;20041;-58
2021/12/06 04:06:42;;;;;;;19.83;9.60;;;;;;;11.82;49.80;101083.09;5033421;28;20040;-58
2021/12/06 04:09:08;;;;;;;24.08;9.48;;;;;;;11.80;49.89;101091.31;5032502;28;20037;-59
2021/12/06 04:11:34;;;;;;;22.75;9.57;;;;;;;11.80;50.01;101095.81;5034145;28;20029;-58
2021/12/06 04:14:00;;;;;;;23.30;9.15;;;;;;;11.78;50.14;101092.41;5034260;28;20061;-58
2021/12/06 04:16:25;;;;;;;20.60;10.20;;;;;;;11.77;49.84;101094.25;5034663;28;20393;-58
2021/12/06 04:18:51;;;;;;;19.85;9.38;;;;;;;11.77;49.70;101102.28;5033204;28;20072;-58
2021/12/06 04:21:17;;;;;;;22.10;9.88;;;;;;;11.78;50.04;101108.53;5034455;28;20402;-58
2021/12/06 04:23:43;;;;;;;25.92;10.00;;;;;;;11.73;50.11;101106.19;5034277;28;20033;-58
2021/12/06 04:26:09;;;;;;;16.88;9.13;;;;;;;11.72;49.99;101099.16;5033330;28;20462;-58
2021/12/06 04:28:35;;;;;;;23.50;8.77;;;;;;;11.75;50.20;101104.25;5034172;28;20445;-58
2021/12/06 04:31:03;;;;;;;22.13;9.75;;;;;;;11.75;50.11;101108.78;5034592;28;20486;-58
2021/12/06 04:33:28;;;;;;;23.48;9.45;;;;;;;11.74;50.27;101113.28;5034349;28;20025;-58
2021/12/06 04:35:54;;;;;;;21.73;10.15;;;;;;;11.73;49.96;101108.88;5034379;28;20557;-58
2021/12/06 04:38:21;;;;;;;21.50;9.18;;;;;;;11.68;50.40;101109.25;5034026;28;20079;-58
2021/12/06 04:40:47;;;;;;;22.63;10.60;;;;;;;11.75;49.93;101128.41;5032956;28;20041;-58
2021/12/06 04:43:13;;;;;;;22.15;8.65;;;;;;;11.73;50.32;101122.31;5033756;28;20038;-58
2021/12/06 04:45:39;;;;;;;21.02;10.02;;;;;;;11.73;50.30;101130.34;5032581;28;20363;-58
2021/12/06 04:48:05;;;;;;;23.33;9.60;;;;;;;11.75;49.79;101128.41;5032751;28;20036;-58
2021/12/06 04:50:32;;;;;;;36.28;10.45;;;;;;;11.75;50.54;101130.25;5034143;28;20032;-58
2021/12/06 04:53:03;;;;;;;22.80;10.15;;;;;;;11.76;50.19;101132.78;5033904;28;20025;-58
2021/12/06 04:55:35;;;;;;;22.00;9.75;;;;;;;11.76;50.03;101124.72;5033599;28;20022;-59
2021/12/06 04:58:02;;;;;;;23.33;9.45;;;;;;;11.77;50.40;101129.13;5033791;28;20025;-58
2021/12/06 05:00:35;;;;;;;25.00;10.32;;;;;;;11.76;50.13;101127.41;5033874;28;20398;-58
2021/12/06 05:03:02;;;;;;;27.27;9.20;;;;;;;11.77;50.77;101125.59;5033732;28;20421;-58
2021/12/06 05:05:32;;;;;;;19.63;9.68;;;;;;;11.76;50.12;101135.47;5033420;28;20029;-58
2021/12/06 05:08:01;;;;;;;26.42;10.88;;;;;;;11.75;49.73;101133.78;5033709;28;20386;-58
2021/12/06 05:10:26;;;;;;;22.85;11.18;;;;;;;11.75;50.41;101141.84;5033493;28;20060;-58
2021/12/06 05:12:52;;;;;;;22.38;9.45;;;;;;;11.72;49.88;101139.41;5032239;28;20586;-58
2021/12/06 05:15:18;;;;;;;50.90;11.32;;;;;;;11.73;49.76;101145.59;5033875;28;20171;-58
2021/12/06 05:17:44;;;;;;;41.28;10.90;;;;;;;11.75;50.03;101152.56;5032212;28;20060;-58
2021/12/06 05:20:11;;;;;;;26.48;9.93;;;;;;;11.75;50.13;101154.41;5033082;28;20029;-58
2021/12/06 05:22:37;;;;;;;33.70;10.32;;;;;;;11.61;49.65;101136.75;5031715;28;20029;-58
2021/12/06 05:25:04;;;;;;;49.78;10.82;;;;;;;11.76;50.45;101165.00;5031918;28;20021;-58
2021/12/06 05:27:30;;;;;;;37.65;10.70;;;;;;;11.74;50.44;101161.59;5032725;28;20025;-58
2021/12/06 05:29:59;;;;;;;62.63;12.23;;;;;;;11.74;50.61;101161.59;5032139;28;20033;-57
2021/12/06 05:32:28;;;;;;;60.88;12.13;;;;;;;11.71;50.11;101164.53;5032086;28;20040;-58
2021/12/06 05:35:01;;;;;;;24.98;9.65;;;;;;;11.69;50.24;101171.88;5032901;28;20025;-58
2021/12/06 05:37:27;;;;;;;26.95;9.50;;;;;;;11.69;50.29;101174.53;5033174;28;20025;-58
2021/12/06 05:39:53;;;;;;;32.40;10.93;;;;;;;11.67;50.91;101171.09;5031995;28;20470;-58
2021/12/06 05:42:18;;;;;;;36.80;11.13;;;;;;;11.70;50.69;101176.22;5031631;28;20021;-58
2021/12/06 05:44:44;;;;;;;30.13;10.60;;;;;;;11.72;50.36;101174.28;5031645;28;20064;-58
2021/12/06 05:47:09;;;;;;;36.40;10.73;;;;;;;11.71;49.61;101177.09;5032813;28;20034;-59
2021/12/06 05:49:35;;;;;;;35.17;9.88;;;;;;;11.73;49.97;101186.72;5015130;28;20112;-58
2021/12/06 05:52:00;;;;;;;30.27;10.55;;;;;;;11.74;50.57;101191.09;5015118;28;20118;-58
2021/12/06 05:54:26;;;;;;;26.35;10.68;;;;;;;11.68;50.80;101181.72;5032771;28;20108;-59
2021/12/06 05:56:52;;;;;;;27.77;9.75;;;;;;;11.73;50.99;101194.75;5032665;28;20083;-58
2021/12/06 05:59:17;;;;;;;33.20;10.20;;;;;;;11.76;50.76;101197.19;5031322;28;20061;-58
2021/12/06 06:01:43;;;;;;;37.25;11.63;;;;;;;11.74;50.61;101187.56;5032745;28;20557;-58
2021/12/06 06:04:08;;;;;;;47.00;11.80;;;;;;;11.75;50.62;101192.81;5032479;28;20105;-58
2021/12/06 06:06:36;;;;;;;51.17;12.00;;;;;;;11.75;50.61;101179.41;5032407;28;20040;-58
2021/12/06 06:09:02;;;;;;;34.10;10.43;;;;;;;11.72;50.86;101179.66;5032408;28;20025;-59
2021/12/06 06:11:28;;;;;;;41.78;10.80;;;;;;;11.71;50.65;101177.94;5032431;28;20029;-58
2021/12/06 06:13:53;;;;;;;33.33;12.25;;;;;;;11.68;50.26;101176.34;5032290;28;20045;-58
2021/12/06 06:16:21;;;;;;;55.55;11.75;;;;;;;11.66;50.23;101181.00;5031429;28;20021;-58
2021/12/06 06:18:49;;;;;;;71.40;12.88;;;;;;;11.64;50.46;101171.38;5031193;28;20026;-59
2021/12/06 06:21:14;;;;;;;34.35;9.52;;;;;;;11.62;50.50;101173.31;5031163;28;20031;-58
2021/12/06 06:23:40;;;;;;;32.50;9.75;;;;;;;11.61;50.55;101176.97;5032485;28;20124;-58
2021/12/06 06:26:06;;;;;;;35.35;12.90;;;;;;;11.63;50.00;101180.38;5014660;28;20057;-58
2021/12/06 06:28:31;;;;;;;21.08;10.32;;;;;;;11.63;50.40;101186.59;5032258;28;20542;-59
2021/12/06 06:30:56;;;;;;;27.77;11.35;;;;;;;11.66;50.43;101190.88;5030974;28;20032;-59
2021/12/06 06:33:23;;;;;;;27.00;11.15;;;;;;;11.68;50.91;101189.75;5034868;28;20367;-58
2021/12/06 06:35:49;;;;;;;38.25;12.15;;;;;;;11.71;50.69;101187.81;5036085;28;20468;-58
2021/12/06 06:38:14;;;;;;;39.47;11.98;;;;;;;11.72;50.39;101189.53;5034777;28;20040;-58
2021/12/06 06:40:40;;;;;;;35.28;13.48;;;;;;;11.74;51.02;101200.97;5034862;28;20057;-58
2021/12/06 06:43:05;;;;;;;33.92;11.70;;;;;;;11.76;50.77;101207.06;5036023;28;20090;-58
2021/12/06 06:45:31;;;;;;;37.75;10.38;;;;;;;11.75;50.47;101208.94;5035774;28;20033;-58
2021/12/06 06:47:56;;;;;;;32.88;11.48;;;;;;;11.77;50.30;101208.78;5035946;28;20390;-58
2021/12/06 06:50:22;;;;;;;39.60;10.57;;;;;;;11.77;50.51;101206.09;5035823;28;20026;-58
2021/12/06 06:52:48;;;;;;;63.92;11.18;;;;;;;11.77;50.97;101211.47;5035938;28;20119;-58
2021/12/06 06:55:15;;;;;;;51.72;11.85;;;;;;;11.65;50.97;101194.50;5035859;28;20033;-58
2021/12/06 06:57:41;;;;;;;72.65;12.05;;;;;;;11.68;50.79;101211.22;5034659;28;20406;-58
2021/12/06 07:00:11;;;;;;;30.05;9.93;;;;;;;11.65;50.88;101213.28;5035876;28;20051;-58
2021/12/06 07:02:36;;;;;;;25.67;10.45;;;;;;;11.64;50.48;101215.13;5034379;28;20033;-58
2021/12/06 07:05:02;;;;;;;21.20;10.05;;;;;;;11.60;50.27;101205.63;5034323;28;20032;-59
2021/12/06 07:07:28;;;;;;;19.67;10.73;;;;;;;11.65;50.65;101215.97;5035599;28;20394;-58
2021/12/06 07:09:53;;;;;;;36.50;9.65;;;;;;;11.64;50.38;101214.28;5034160;28;20227;-58
2021/12/06 07:12:19;;;;;;;53.42;11.05;;;;;;;11.63;51.14;101212.59;5035430;28;20474;-58
2021/12/06 07:14:46;;;;;;;47.15;11.02;;;;;;;11.61;50.84;101217.22;5034905;28;20500;-58
2021/12/06 07:17:12;;;;;;;23.27;9.00;;;;;;;11.60;50.59;101221.75;5035361;28;20029;-58
2021/12/06 07:19:37;;;;;;;27.90;9.98;;;;;;;11.57;50.58;101218.44;5034098;28;20028;-59
2021/12/06 07:22:04;;;;;;;35.90;10.18;;;;;;;11.55;50.64;101221.28;5035203;28;20550;-58
2021/12/06 07:24:29;;;;;;;44.30;10.57;;;;;;;11.54;50.82;101226.75;5034272;28;20486;-58
2021/12/06 07:26:55;;;;;;;22.85;10.35;;;;;;;11.53;51.21;101238.47;5034981;28;20083;-58
2021/12/06 07:29:21;;;;;;;36.08;9.65;;;;;;;11.49;50.39;101234.31;5035133;28;20021;-58
2021/12/06 07:31:46;;;;;;;36.45;10.10;;;;;;;11.45;50.53;101244.44;5033701;28;20033;-58
2021/12/06 07:34:11;;;;;;;24.60;10.70;;;;;;;11.44;51.51;101244.59;5034839;28;20075;-58
2021/12/06 07:36:37;;;;;;;37.63;10.57;;;;;;;11.41;50.35;101256.41;5034758;28;20109;-58
2021/12/06 07:39:03;;;;;;;26.63;9.27;;;;;;;11.41;50.53;101255.56;5034969;28;20180;-58
2021/12/06 07:41:29;;;;;;;35.55;10.73;;;;;;;11.39;50.89;101252.97;5034617;28;20060;-58
2021/12/06 07:43:56;;;;;;;27.83;10.38;;;;;;;11.40;50.30;101256.53;5032082;28;20037;-58
2021/12/06 07:46:22;;;;;;;39.28;9.73;;;;;;;11.43;51.06;101248.22;5033342;28;20390;-58
2021/12/06 07:48:52;;;;;;;33.80;10.35;;;;;;;11.44;50.71;101260.69;5034494;28;20028;-58
2021/12/06 07:51:19;;;;;;;21.55;10.05;;;;;;;11.43;50.55;101264.31;5034567;28;20505;-58
2021/12/06 07:53:44;;;;;;;28.02;10.05;;;;;;;11.44;50.38;101260.69;5033340;28;20375;-58
2021/12/06 07:56:10;;;;;;;36.95;11.55;;;;;;;11.45;50.58;101268.59;5034820;28;20091;-59
2021/12/06 07:58:35;;;;;;;44.05;10.25;;;;;;;11.46;50.53;101264.06;5034315;28;20029;-58
2021/12/06 08:01:02;;;;;;;20.20;10.07;;;;;;;11.46;51.52;101274.81;5034585;28;20075;-58
2021/12/06 08:03:30;;;;;;;38.25;9.43;;;;;;;11.48;50.71;101273.69;5034569;28;20100;-58
2021/12/06 08:05:56;;;;;;;33.55;9.38;;;;;;;11.45;50.50;101262.34;5034185;28;20033;-58
2021/12/06 08:08:29;;;;;;;24.33;9.15;;;;;;;11.49;50.19;101269.19;5034289;28;20433;-58
2021/12/06 09:24:01;;;;;;;32.17;11.30;;;;;;;11.34;50.84;101297.25;4988148;28;20056;-58
2021/12/06 09:26:28;;;;;;;35.90;11.88;;;;;;;11.36;50.72;101290.78;5032841;28;20034;-58
2021/12/06 09:28:55;;;;;;;32.63;11.25;;;;;;;11.37;51.00;101286.28;5031530;28;20421;-58
2021/12/06 09:31:21;;;;;;;30.95;11.57;;;;;;;11.36;50.92;101295.31;5032827;28;20572;-58
2021/12/06 09:33:46;;;;;;;35.90;12.98;;;;;;;11.36;50.67;101295.31;5031746;28;20029;-58
2021/12/06 09:36:13;;;;;;;35.25;13.15;;;;;;;11.36;50.55;101287.25;5032741;28;20071;-58
2021/12/06 09:38:40;;;;;;;42.70;14.15;;;;;;;11.36;50.65;101284.59;5033140;28;20363;-58
2021/12/06 09:41:22;;;;;;;43.05;14.45;;;;;;;11.39;51.16;101284.34;5031606;28;20112;-58
2021/12/06 09:43:50;;;;;;;48.35;14.65;;;;;;;11.42;50.99;101278.69;5032887;28;20413;-58
2021/12/06 09:46:15;;;;;;;39.47;13.45;;;;;;;11.45;50.86;101282.00;5032846;28;20033;-58
2021/12/06 09:48:43;;;;;;;41.05;15.32;;;;;;;11.50;50.57;101287.00;5032675;28;20029;-58
2021/12/06 09:51:12;;;;;;;35.15;13.02;;;;;;;11.53;50.33;101281.41;5031416;28;20081;-58
2021/12/06 09:53:40;;;;;;;35.92;11.45;;;;;;;11.57;50.60;101283.69;5032686;28;20027;-58
2021/12/06 09:56:10;;;;;;;30.10;12.10;;;;;;;11.61;51.02;101289.69;5031402;28;20049;-58
2021/12/06 09:58:37;;;;;;;33.25;12.80;;;;;;;11.67;50.80;101283.78;5032852;28;20025;-58
2021/12/06 10:01:11;;;;;;;35.08;12.50;;;;;;;11.73;50.63;101280.63;5031429;28;20025;-58
2021/12/06 10:03:37;;;;;;;48.13;13.27;;;;;;;11.77;50.62;101279.41;5032603;28;20100;-58
2021/12/06 10:06:04;;;;;;;33.65;12.13;;;;;;;11.77;50.27;101278.56;5032531;28;20554;-57
2021/12/06 10:08:38;;;;;;;29.73;11.20;;;;;;;11.80;50.41;101284.53;5034473;28;20483;-58
2021/12/06 10:11:05;;;;;;;27.55;11.07;;;;;;;11.82;50.51;101277.22;5036852;28;20021;-57
2021/12/06 10:13:31;;;;;;;24.58;10.10;;;;;;;11.88;50.31;101279.38;5035556;28;20021;-58
2021/12/06 10:15:56;;;;;;;30.95;11.70;;;;;;;11.91;50.70;101278.28;5036545;28;20383;-58
2021/12/06 10:18:22;;;;;;;30.85;12.30;;;;;;;11.93;50.14;101273.63;5035701;28;20383;-58
2021/12/06 10:20:48;;;;;;;30.35;12.23;;;;;;;11.94;50.80;101264.59;5035233;28;20037;-58
2021/12/06 10:23:16;;;;;;;33.00;11.48;;;;;;;12.04;50.82;101266.41;5036376;28;20056;-58
2021/12/06 10:25:45;;;;;;;31.25;11.15;;;;;;;12.07;50.29;101266.13;5036172;28;20036;-58
2021/12/06 10:28:11;;;;;;;27.50;10.52;;;;;;;12.10;50.55;101259.66;5036382;28;20025;-58
2021/12/06 10:30:52;;;;;;;23.30;10.55;;;;;;;12.15;50.68;101262.81;5036207;28;20029;-58
2021/12/06 10:33:20;;;;;;;22.90;8.90;;;;;;;12.16;50.98;101264.53;5036193;28;20025;-58
2021/12/06 10:35:52;;;;;;;18.02;7.97;;;;;;;12.17;50.21;101267.06;5036128;28;20388;-58
2021/12/06 10:38:23;;;;;;;17.67;9.07;;;;;;;12.23;50.69;101263.88;5034991;28;20029;-58
2021/12/06 10:40:49;;;;;;;14.00;7.32;;;;;;;12.30;50.76;101260.66;5036225;28;20030;-58
2021/12/06 10:43:15;;;;;;;16.40;8.98;;;;;;;12.32;49.81;101256.00;5036080;28;20116;-58
2021/12/06 10:45:49;;;;;;;15.93;7.97;;;;;;;12.28;49.99;101239.31;5036238;28;20113;-58
2021/12/06 10:48:20;;;;;;;16.00;7.57;;;;;;;12.36;50.65;101241.34;5035244;28;20501;-58
2021/12/06 10:50:47;;;;;;;17.02;8.60;;;;;;;12.35;50.03;101231.56;5036053;28;20025;-58
2021/12/06 10:53:14;;;;;;;23.48;9.43;;;;;;;12.34;49.69;101221.84;5034916;28;20037;-58
2021/12/06 10:55:41;;;;;;;16.27;7.72;;;;;;;12.34;50.33;101217.28;5034758;28;20025;-58
2021/12/06 10:58:12;;;;;;;16.63;6.88;;;;;;;12.34;49.98;101213.78;5035702;28;20021;-58
2021/12/06 11:00:44;;;;;;;12.57;6.68;;;;;;;12.36;50.17;101212.66;5035741;28;20021;-58
2021/12/06 11:03:30;;;;;;;17.40;6.88;;;;;;;12.35;49.93;101212.78;5034606;28;20029;-59
2021/12/06 11:06:01;;;;;;;11.95;6.72;;;;;;;12.35;50.32;101212.78;5036273;28;20378;-58
2021/12/06 11:08:28;;;;;;;14.13;6.55;;;;;;;12.37;49.83;101202.78;5035698;28;20021;-59
2021/12/06 11:10:59;;;;;;;11.10;5.18;;;;;;;12.44;49.30;101193.19;5034371;28;20155;-58
2021/12/06 11:13:28;;;;;;;12.45;6.45;;;;;;;12.47;49.71;101190.25;5035843;28;20033;-58
2021/12/06 11:16:15;;;;;;;13.00;5.90;;;;;;;12.48;50.42;101183.88;5035528;28;20024;-59
2021/12/06 11:18:44;;;;;;;13.50;6.18;;;;;;;12.55;49.94;101175.16;5034842;28;20036;-58
2021/12/06 11:21:19;;;;;;;14.55;6.03;;;;;;;12.57;49.35;101161.56;5035889;28;20032;-59
2021/12/06 11:24:11;;;;;;;11.93;6.25;;;;;;;12.66;49.60;101166.16;5035240;28;20073;-58
2021/12/06 11:26:48;;;;;;;14.27;5.88;;;;;;;12.69;49.85;101165.88;5035437;28;20104;-58
2021/12/06 11:29:15;;;;;;;12.13;5.57;;;;;;;12.70;49.95;101164.91;5035320;28;20018;-58
2021/12/06 11:31:44;;;;;;;10.82;6.30;;;;;;;12.70;48.94;101163.03;5035052;28;20029;-58
2021/12/06 11:34:09;;;;;;;8.07;5.15;;;;;;;12.71;49.05;101153.16;5034474;28;20087;-58
2021/12/06 11:36:40;;;;;;;10.60;5.20;;;;;;;12.71;48.93;101148.63;5035415;28;20496;-58
2021/12/06 11:39:14;;;;;;;10.23;5.50;;;;;;;12.68;49.10;101138.16;5035471;28;20068;-58
2021/12/06 11:41:42;;;;;;;9.65;5.82;;;;;;;12.73;48.99;101141.28;5035314;28;20029;-58
2021/12/06 11:44:26;;;;;;;10.18;5.28;;;;;;;12.78;48.59;101143.59;5035627;28;20033;-58
2021/12/06 11:47:10;;;;;;;12.13;6.38;;;;;;;12.81;48.81;101132.56;5035298;28;20519;-58
2021/12/06 11:49:50;;;;;;;11.68;5.25;;;;;;;12.92;49.36;101135.16;5034985;28;20025;-58
2021/12/06 11:52:32;;;;;;;13.32;5.25;;;;;;;12.95;49.02;101132.19;5034190;28;20033;-58
2021/12/06 11:55:09;;;;;;;11.55;5.68;;;;;;;13.00;48.67;101127.25;5033743;28;20025;-58
2021/12/06 11:57:42;;;;;;;8.35;4.38;;;;;;;13.11;48.68;101132.53;5033476;28;20037;-58
2021/12/06 12:00:11;;;;;;;;;;;;;;;13.17;49.30;101129.31;5034001;28;20052;-58
2021/12/06 12:02:41;;;;;;;8.57;4.63;;;;;;;13.22;49.04;101121.66;5034805;28;19909;-58
2021/12/06 12:05:24;;;;;;;10.55;5.35;;;;;;;13.27;48.23;101114.00;5034696;28;20474;-58
2021/12/06 12:08:11;;;;;;;10.98;4.05;;;;;;;13.40;48.26;101103.81;5033342;28;20075;-58
2021/12/06 12:10:45;;;;;;;9.55;4.50;;;;;;;13.60;48.47;101103.81;5034418;28;20105;-58
2021/12/06 12:13:14;;;;;;;7.43;3.88;;;;;;;13.57;48.84;101104.13;5034649;28;20493;-58
2021/12/06 12:15:40;;;;;;;6.13;3.72;;;;;;;13.49;48.01;101102.13;5034732;28;20026;-58
2021/12/06 12:18:06;;;;;;;6.55;4.05;;;;;;;13.65;48.25;101109.66;5034319;28;20087;-58
2021/12/06 12:20:35;;;;;;;7.65;4.10;;;;;;;13.71;48.44;101103.69;5033179;28;20029;-58
2021/12/06 12:23:05;;;;;;;8.63;3.30;;;;;;;13.71;47.95;101101.00;5033205;28;20025;-59
2021/12/06 12:25:34;;;;;;;8.05;4.60;;;;;;;14.04;46.97;101087.09;5033267;28;20100;-58
2021/12/06 12:30:33;;;;;;;8.55;4.03;;;;;;;14.58;46.44;101076.41;5033952;28;20037;-58
2021/12/06 12:33:04;;;;;;;7.32;3.67;;;;;;;14.68;48.01;101075.53;5034006;28;20103;-58
2021/12/06 12:35:31;;;;;;;7.85;3.70;;;;;;;15.00;46.04;101081.31;5034115;28;20022;-58
2021/12/06 12:37:58;;;;;;;10.45;4.00;;;;;;;15.13;47.37;101060.22;5032762;28;20082;-58
2021/12/06 12:40:26;;;;;;;6.30;3.53;;;;;;;15.44;46.79;101052.56;5033884;28;20029;-58
2021/12/06 12:43:01;;;;;;;4.72;3.33;;;;;;;15.66;46.02;101047.56;5034126;28;20516;-58
2021/12/06 12:45:39;;;;;;;7.30;3.03;;;;;;;15.93;45.71;101048.44;5033823;28;20053;-58
2021/12/06 12:48:05;;;;;;;6.85;3.10;;;;;;;15.90;46.70;101036.09;5034049;28;20108;-58
2021/12/06 12:50:30;;;;;;;4.57;2.83;;;;;;;16.00;46.10;101044.09;5033971;28;20021;-58